createdAt,value
2022-11-26T00:01:20.907Z,97988.56
2022-11-26T00:03:53.626Z,97988.88
2022-11-26T00:06:42.617Z,97981.22
2022-11-26T00:09:19.411Z,97981.50
2022-11-26T00:11:47.750Z,97987.94
2022-11-26T00:14:16.488Z,97988.13
2022-11-26T00:16:45.016Z,97985.13
2022-11-26T00:19:13.408Z,97993.88
2022-11-26T00:21:41.726Z,97986.25
2022-11-26T00:24:37.766Z,97996.22
2022-11-26T00:27:06.270Z,97997.44
2022-11-26T00:29:34.611Z,97985.44
2022-11-26T00:32:02.983Z,97975.38
2022-11-26T00:34:31.540Z,97978.56
2022-11-26T00:37:00.204Z,97977.97
2022-11-26T00:39:28.962Z,97969.47
2022-11-26T00:41:57.508Z,97973.19
2022-11-26T00:44:26.649Z,97969.50
2022-11-26T00:46:55.504Z,97967.69
2022-11-26T00:49:24.451Z,97968.06
2022-11-26T00:51:53.845Z,97965.31
2022-11-26T00:54:23.598Z,97961.97
2022-11-26T00:56:52.490Z,97961.19
2022-11-26T00:59:22.248Z,97967.06
2022-11-26T01:01:50.731Z,97967.44
2022-11-26T01:04:19.137Z,97971.84
2022-11-26T01:06:47.465Z,97966.16
2022-11-26T01:09:20.372Z,97976.06
2022-11-26T01:11:53.496Z,97972.66
2022-11-26T01:14:23.364Z,97975.81
2022-11-26T01:16:51.850Z,97975.56
2022-11-26T01:19:20.245Z,97978.66
2022-11-26T01:21:48.530Z,97973.31
2022-11-26T01:24:16.850Z,97981.19
2022-11-26T01:26:45.528Z,97980.91
2022-11-26T01:29:16.472Z,97980.41
2022-11-26T01:31:45.080Z,97987.44
2022-11-26T01:34:14.644Z,97985.06
2022-11-26T01:36:43.195Z,97998.28
2022-11-26T01:39:16.562Z,98005.72
2022-11-26T01:41:48.587Z,98005.72
2022-11-26T01:44:20.686Z,98005.97
2022-11-26T01:46:49.276Z,98010.56
2022-11-26T01:49:24.783Z,98009.25
2022-11-26T01:52:03.422Z,98010.34
2022-11-26T01:54:31.946Z,98010.25
2022-11-26T01:57:13.259Z,98014.34
2022-11-26T01:59:42.738Z,98004.66
2022-11-26T02:02:11.135Z,98019.66
2022-11-26T02:04:41.789Z,98015.34
2022-11-26T02:07:10.175Z,98016.84
2022-11-26T02:09:38.401Z,98018.63
2022-11-26T02:12:06.736Z,98007.72
2022-11-26T02:14:37.341Z,97998.63
2022-11-26T02:17:19.455Z,97994.78
2022-11-26T02:19:56.675Z,97993.38
2022-11-26T02:22:43.131Z,98003.97
2022-11-26T02:25:20.399Z,98006.91
2022-11-26T02:28:18.993Z,98015.41
2022-11-26T02:30:50.146Z,98024.84
2022-11-26T02:33:32.850Z,98019.38
2022-11-26T02:36:13.524Z,98011.22
2022-11-26T02:38:41.880Z,98016.19
2022-11-26T02:41:10.111Z,98023.25
2022-11-26T02:43:38.451Z,98019.13
2022-11-26T02:46:10.708Z,98020.78
2022-11-26T02:48:41.700Z,98004.72
2022-11-26T02:51:16.528Z,98009.13
2022-11-26T02:53:46.795Z,98009.31
2022-11-26T02:56:21.073Z,98009.53
2022-11-26T02:58:50.301Z,98013.41
2022-11-26T03:01:32.012Z,98014.19
2022-11-26T03:04:03.484Z,98007.66
2022-11-26T03:06:32.747Z,98014.41
2022-11-26T03:09:01.117Z,98016.00
2022-11-26T03:11:29.455Z,98011.44
2022-11-26T03:13:57.845Z,98010.00
2022-11-26T03:16:26.650Z,98016.66
2022-11-26T03:18:55.090Z,98020.41
2022-11-26T03:21:23.287Z,98024.50
2022-11-26T03:23:51.583Z,98025.88
2022-11-26T03:26:20.640Z,98019.63
2022-11-26T03:28:49.050Z,98025.00
2022-11-26T03:31:17.494Z,98035.44
2022-11-26T03:33:46.381Z,98031.44
2022-11-26T03:36:14.567Z,98042.06
2022-11-26T03:38:42.928Z,98046.28
2022-11-26T03:41:11.777Z,98043.19
2022-11-26T03:43:40.141Z,98046.38
2022-11-26T03:46:09.109Z,98055.34
2022-11-26T03:48:37.469Z,98050.28
2022-11-26T03:51:05.874Z,98056.41
2022-11-26T03:53:34.105Z,98056.41
2022-11-26T03:56:02.939Z,98072.00
2022-11-26T03:58:31.243Z,98076.72
2022-11-26T04:00:59.536Z,98090.44
2022-11-26T04:03:27.975Z,98076.66
2022-11-26T04:05:56.449Z,98075.34
2022-11-26T04:08:24.707Z,98080.22
2022-11-26T04:10:53.010Z,98087.22
2022-11-26T04:13:21.278Z,98088.97
2022-11-26T04:15:49.649Z,98088.53
2022-11-26T04:18:17.964Z,98103.13
2022-11-26T04:20:50.091Z,98101.63
2022-11-26T04:23:21.585Z,98107.25
2022-11-26T04:25:49.866Z,98101.41
2022-11-26T04:28:18.142Z,98126.09
2022-11-26T04:30:46.440Z,98122.09
2022-11-26T04:33:14.768Z,98126.78
2022-11-26T04:35:43.166Z,98114.00
2022-11-26T04:38:11.442Z,98123.47
2022-11-26T04:40:39.718Z,98119.94
2022-11-26T04:43:08.010Z,98126.56
2022-11-26T04:45:36.386Z,98120.72
2022-11-26T04:48:05.431Z,98127.94
2022-11-26T04:50:33.715Z,98131.72
2022-11-26T04:53:02.723Z,98129.44
2022-11-26T04:55:31.010Z,98135.41
2022-11-26T04:57:59.566Z,98135.88
2022-11-26T05:00:27.960Z,98142.56
2022-11-26T05:02:56.302Z,98152.69
2022-11-26T05:05:24.721Z,98143.50
2022-11-26T05:07:53.035Z,98151.31
2022-11-26T05:10:21.381Z,98158.28
2022-11-26T05:12:49.690Z,98154.31
2022-11-26T05:15:18.126Z,98165.78
2022-11-26T05:17:46.409Z,98165.78
2022-11-26T05:20:15.302Z,98162.31
2022-11-26T05:22:43.624Z,98155.63
2022-11-26T05:25:12.001Z,98161.50
2022-11-26T05:27:40.281Z,98170.34
2022-11-26T05:30:09.210Z,98167.09
2022-11-26T05:32:37.566Z,98169.38
2022-11-26T05:35:06.130Z,98172.84
2022-11-26T05:37:34.695Z,98173.22
2022-11-26T05:40:03.102Z,98168.94
2022-11-26T05:42:31.499Z,98173.41
2022-11-26T05:44:59.861Z,98176.69
2022-11-26T05:47:28.200Z,98182.06
2022-11-26T05:49:56.566Z,98178.31
2022-11-26T05:52:25.081Z,98177.53
2022-11-26T05:54:53.397Z,98177.78
2022-11-26T05:57:22.041Z,98180.16
2022-11-26T05:59:50.410Z,98184.97
2022-11-26T06:02:19.603Z,98178.13
2022-11-26T06:04:48.011Z,98187.34
2022-11-26T06:07:16.379Z,98179.94
2022-11-26T06:09:44.677Z,98185.66
2022-11-26T06:12:13.057Z,98189.19
2022-11-26T06:14:43.375Z,98191.97
2022-11-26T06:17:12.121Z,98191.84
2022-11-26T06:19:40.605Z,98189.09
2022-11-26T06:22:09.512Z,98192.25
2022-11-26T06:24:38.086Z,98200.38
2022-11-26T06:27:06.525Z,98205.59
2022-11-26T06:29:35.045Z,98209.22
2022-11-26T06:32:03.440Z,98209.59
2022-11-26T06:34:31.784Z,98213.31
2022-11-26T06:37:00.126Z,98207.22
2022-11-26T06:39:28.688Z,98211.78
2022-11-26T06:41:57.020Z,98203.16
2022-11-26T06:44:25.359Z,98198.94
2022-11-26T06:46:53.642Z,98193.63
2022-11-26T06:49:21.951Z,98190.53
2022-11-26T06:51:50.241Z,98193.13
2022-11-26T06:54:18.562Z,98191.06
2022-11-26T06:56:47.126Z,98200.38
2022-11-26T06:59:15.910Z,98197.88
2022-11-26T07:01:44.264Z,98203.94
2022-11-26T07:04:13.710Z,98212.38
2022-11-26T07:06:43.157Z,98210.19
2022-11-26T07:09:12.030Z,98217.41
2022-11-26T07:11:40.621Z,98225.56
2022-11-26T07:14:09.135Z,98220.78
2022-11-26T07:16:37.536Z,98221.88
2022-11-26T07:19:05.941Z,98226.38
2022-11-26T07:21:34.295Z,98218.03
2022-11-26T07:24:02.588Z,98225.75
2022-11-26T07:26:31.045Z,98223.78
2022-11-26T07:28:59.309Z,98222.47
2022-11-26T07:31:27.828Z,98214.31
2022-11-26T07:33:57.146Z,98215.69
2022-11-26T07:36:27.254Z,98203.97
2022-11-26T07:38:59.247Z,98196.59
2022-11-26T07:41:28.187Z,98190.63
2022-11-26T07:43:56.605Z,98184.66
2022-11-26T07:46:25.759Z,98176.13
2022-11-26T07:48:55.431Z,98179.09
2022-11-26T07:51:28.612Z,98191.50
2022-11-26T07:53:58.738Z,98184.19
2022-11-26T07:56:27.378Z,98193.53
2022-11-26T07:58:56.740Z,98200.66
2022-11-26T08:01:32.249Z,98202.84
2022-11-26T08:04:01.112Z,98204.28
2022-11-26T08:06:30.101Z,98208.47
2022-11-26T08:09:02.668Z,98212.34
2022-11-26T08:11:32.259Z,98225.38
2022-11-26T08:14:11.425Z,98231.66
2022-11-26T08:16:40.074Z,98226.56
2022-11-26T08:19:11.537Z,98225.56
2022-11-26T08:21:41.607Z,98223.56
2022-11-26T08:24:14.740Z,98221.63
2022-11-26T08:26:44.516Z,98225.56
2022-11-26T08:29:14.024Z,98229.22
2022-11-26T08:31:46.148Z,98224.19
2022-11-26T08:34:15.703Z,98229.59
2022-11-26T08:36:44.456Z,98222.19
2022-11-26T08:39:14.597Z,98225.16
2022-11-26T08:41:46.086Z,98218.56
2022-11-26T08:44:17.324Z,98223.72
2022-11-26T08:46:45.774Z,98214.81
2022-11-26T08:49:15.189Z,98214.75
2022-11-26T08:51:44.450Z,98225.00
2022-11-26T08:54:13.066Z,98221.25
2022-11-26T08:56:41.401Z,98212.53
2022-11-26T08:59:09.751Z,98210.19
2022-11-26T09:01:38.358Z,98206.28
2022-11-26T09:04:07.222Z,98198.16
2022-11-26T09:06:37.347Z,98209.69
2022-11-26T09:09:15.436Z,98205.25
2022-11-26T09:11:57.729Z,98204.50
2022-11-26T09:14:28.047Z,98208.91
2022-11-26T09:16:59.789Z,98208.94
2022-11-26T09:19:28.773Z,98211.34
2022-11-26T09:21:57.262Z,98199.00
2022-11-26T09:24:26.049Z,98203.50
2022-11-26T09:26:54.553Z,98203.19
2022-11-26T09:29:23.679Z,98194.31
2022-11-26T09:34:42.855Z,98196.44
2022-11-26T09:37:11.451Z,98196.41
2022-11-26T09:39:40.414Z,98200.69
2022-11-26T09:42:13.531Z,98205.06
2022-11-26T09:45:12.105Z,98185.06
2022-11-26T09:47:42.224Z,98198.53
2022-11-26T09:50:17.959Z,98185.34
2022-11-26T09:53:01.377Z,98199.22
2022-11-26T09:55:37.302Z,98184.84
2022-11-26T09:58:27.429Z,98183.25
2022-11-26T10:00:57.793Z,98185.88
2022-11-26T10:03:32.520Z,98185.56
2022-11-26T10:06:34.519Z,98184.72
2022-11-26T10:09:08.970Z,98178.41
2022-11-26T10:11:48.290Z,98177.19
2022-11-26T10:14:41.679Z,98178.91
2022-11-26T10:17:35.168Z,98178.63
2022-11-26T10:20:16.515Z,98161.50
2022-11-26T10:22:59.539Z,98166.03
2022-11-26T10:25:29.991Z,98167.38
2022-11-26T10:28:00.280Z,98170.06
2022-11-26T10:30:29.632Z,98167.59
2022-11-26T10:32:59.083Z,98167.03
2022-11-26T10:35:29.365Z,98162.38
2022-11-26T10:37:58.005Z,98155.31
2022-11-26T10:40:30.522Z,98157.09
2022-11-26T10:43:03.095Z,98151.78
2022-11-26T10:45:42.573Z,98150.91
2022-11-26T10:48:17.147Z,98151.44
2022-11-26T10:51:06.712Z,98145.97
2022-11-26T10:53:47.473Z,98147.06
2022-11-26T10:56:19.399Z,98144.75
2022-11-26T10:58:48.217Z,98151.13
2022-11-26T11:01:16.716Z,98146.53
2022-11-26T11:04:07.816Z,98147.78
2022-11-26T11:06:44.725Z,98158.94
2022-11-26T11:09:36.146Z,98159.94
2022-11-26T11:12:19.264Z,98152.84
2022-11-26T11:14:48.305Z,98152.50
2022-11-26T11:17:31.663Z,98158.03
2022-11-26T11:20:23.814Z,98145.53
2022-11-26T11:23:06.269Z,98138.00
2022-11-26T11:25:35.726Z,98136.38
2022-11-26T11:28:18.995Z,98151.31
2022-11-26T11:30:48.364Z,98142.56
2022-11-26T11:33:26.877Z,98133.47
2022-11-26T11:36:06.393Z,98142.56
2022-11-26T11:38:49.575Z,98134.81
2022-11-26T11:41:31.535Z,98137.78
2022-11-26T11:44:07.874Z,98137.72
2022-11-26T11:47:16.064Z,98139.19
2022-11-26T11:50:03.289Z,98144.75
2022-11-26T11:52:50.589Z,98144.16
2022-11-26T11:55:37.540Z,98143.16
2022-11-26T11:58:10.183Z,98136.22
2022-11-26T12:00:57.359Z,98142.09
2022-11-26T12:03:53.121Z,98131.59
2022-11-26T12:06:37.072Z,98131.00
2022-11-26T12:09:20.957Z,98128.03
2022-11-26T12:12:12.888Z,98128.31
2022-11-26T12:14:43.587Z,98133.00
2022-11-26T12:17:16.022Z,98129.84
2022-11-26T12:20:19.647Z,98127.44
2022-11-26T12:23:24.343Z,98127.06
2022-11-26T12:26:16.193Z,98126.31
2022-11-26T12:28:55.806Z,98117.38
2022-11-26T12:31:30.015Z,98117.63
2022-11-26T12:34:13.209Z,98119.09
2022-11-26T12:36:59.772Z,98123.31
2022-11-26T12:39:43.206Z,98116.09
2022-11-26T12:42:31.201Z,98117.22
2022-11-26T12:45:18.181Z,98123.81
2022-11-26T12:47:55.850Z,98112.28
2022-11-26T12:50:47.252Z,98108.13
2022-11-26T12:53:38.993Z,98109.16
2022-11-26T12:56:27.312Z,98110.06
2022-11-26T12:59:36.704Z,98102.84
2022-11-26T13:02:32.965Z,98108.34
2022-11-26T13:05:02.087Z,98101.47
2022-11-26T13:07:53.313Z,98095.97
2022-11-26T13:10:35.804Z,98102.91
2022-11-26T13:13:09.781Z,98106.13
2022-11-26T13:15:55.825Z,98116.66
2022-11-26T13:19:06.888Z,98108.47
2022-11-26T13:21:52.054Z,98109.81
2022-11-26T13:24:45.586Z,98104.97
2022-11-26T13:27:40.742Z,98117.41
2022-11-26T13:30:46.291Z,98123.00
2022-11-26T13:33:46.688Z,98121.50
2022-11-26T13:36:57.392Z,98125.09
2022-11-26T13:39:47.816Z,98112.41
2022-11-26T13:42:17.163Z,98123.69
2022-11-26T13:45:25.203Z,98132.56
2022-11-26T13:48:18.964Z,98140.50
2022-11-26T13:50:54.048Z,98147.34
2022-11-26T13:53:45.732Z,98148.38
2022-11-26T13:56:16.966Z,98155.53
2022-11-26T13:58:51.847Z,98157.03
2022-11-26T14:01:41.523Z,98153.66
2022-11-26T14:04:12.068Z,98169.16
2022-11-26T14:07:05.816Z,98161.06
2022-11-26T14:09:40.685Z,98173.34
2022-11-26T14:12:11.633Z,98167.16
2022-11-26T14:14:41.893Z,98171.53
2022-11-26T14:17:12.941Z,98168.94
2022-11-26T14:19:42.999Z,98167.69
2022-11-26T14:22:24.149Z,98168.53
2022-11-26T14:25:10.733Z,98173.50
2022-11-26T14:28:06.627Z,98183.41
2022-11-26T14:30:35.993Z,98188.06
2022-11-26T14:33:24.621Z,98186.94
2022-11-26T14:35:57.354Z,98186.16
2022-11-26T14:38:36.128Z,98189.81
2022-11-26T14:41:04.767Z,98189.38
2022-11-26T14:43:33.170Z,98189.16
2022-11-26T14:46:13.454Z,98192.09
2022-11-26T14:48:48.263Z,98198.88
2022-11-26T14:51:26.182Z,98210.34
2022-11-26T14:53:55.023Z,98214.34
2022-11-26T14:56:24.125Z,98212.97
2022-11-26T14:59:00.561Z,98213.22
2022-11-26T15:01:29.573Z,98214.84
2022-11-26T15:04:03.320Z,98224.47
2022-11-26T15:06:39.686Z,98227.53
2022-11-26T15:09:18.474Z,98234.50
2022-11-26T15:12:02.100Z,98233.44
2022-11-26T15:14:42.400Z,98236.75
2022-11-26T15:17:18.246Z,98244.44
2022-11-26T15:19:47.089Z,98246.66
2022-11-26T15:22:35.854Z,98252.44
2022-11-26T15:25:25.753Z,98252.09
2022-11-26T15:28:04.281Z,98249.28
2022-11-26T15:30:36.342Z,98247.50
2022-11-26T15:33:14.717Z,98251.94
2022-11-26T15:35:45.245Z,98255.78
2022-11-26T15:38:16.457Z,98260.50
2022-11-26T15:40:52.450Z,98267.19
2022-11-26T15:43:31.891Z,98266.19
2022-11-26T15:46:37.444Z,98263.22
2022-11-26T15:49:07.882Z,98255.47
2022-11-26T15:51:44.299Z,98259.53
2022-11-26T15:54:21.234Z,98264.31
2022-11-26T15:56:56.406Z,98271.03
2022-11-26T15:59:26.525Z,98263.22
2022-11-26T16:01:55.149Z,98269.16
2022-11-26T16:05:04.067Z,98265.94
2022-11-26T16:07:33.581Z,98281.97
2022-11-26T16:10:17.600Z,98290.00
2022-11-26T16:13:16.759Z,98289.78
2022-11-26T16:16:07.117Z,98289.03
2022-11-26T16:18:50.379Z,98292.34
2022-11-26T16:21:28.728Z,98299.72
2022-11-26T16:24:07.849Z,98298.19
2022-11-26T16:27:02.188Z,98297.06
2022-11-26T16:29:33.190Z,98302.16
2022-11-26T16:32:01.839Z,98312.06
2022-11-26T16:34:30.312Z,98311.00
2022-11-26T16:37:16.007Z,98318.53
2022-11-26T16:39:44.489Z,98318.41
2022-11-26T16:42:24.079Z,98311.06
2022-11-26T16:44:53.559Z,98313.56
2022-11-26T16:47:26.621Z,98317.78
2022-11-26T16:49:56.100Z,98328.03
2022-11-26T16:52:28.153Z,98322.50
2022-11-26T16:55:03.358Z,98322.66
2022-11-26T16:57:42.024Z,98329.34
2022-11-26T17:00:21.368Z,98332.94
2022-11-26T17:03:21.073Z,98335.50
2022-11-26T17:06:02.500Z,98333.91
2022-11-26T17:08:31.133Z,98329.44
2022-11-26T17:11:02.435Z,98329.44
2022-11-26T17:13:31.420Z,98330.03
2022-11-26T17:16:02.194Z,98329.44
2022-11-26T17:18:31.510Z,98340.59
2022-11-26T17:21:01.936Z,98330.69
2022-11-26T17:23:35.572Z,98328.97
2022-11-26T17:26:18.777Z,98342.88
2022-11-26T17:28:49.144Z,98345.75
2022-11-26T17:31:19.032Z,98353.06
2022-11-26T17:33:48.921Z,98354.31
2022-11-26T17:36:20.179Z,98347.09
2022-11-26T17:38:48.875Z,98355.41
2022-11-26T17:41:17.394Z,98356.69
2022-11-26T17:43:48.454Z,98360.47
2022-11-26T17:46:23.221Z,98365.47
2022-11-26T17:48:56.887Z,98362.78
2022-11-26T17:51:31.953Z,98358.19
2022-11-26T17:54:02.364Z,98369.91
2022-11-26T17:56:30.860Z,98377.22
2022-11-26T17:59:02.401Z,98375.06
2022-11-26T18:01:30.982Z,98381.84
2022-11-26T18:04:02.094Z,98385.50
2022-11-26T18:07:11.903Z,98382.66
2022-11-26T18:09:42.993Z,98381.06
2022-11-26T18:12:25.466Z,98381.81
2022-11-26T18:14:55.112Z,98384.47
2022-11-26T18:17:25.622Z,98382.59
2022-11-26T18:19:58.097Z,98392.91
2022-11-26T18:22:27.210Z,98384.88
2022-11-26T18:24:58.360Z,98383.50
2022-11-26T18:27:30.403Z,98388.53
2022-11-26T18:29:59.705Z,98391.22
2022-11-26T18:32:28.785Z,98391.25
2022-11-26T18:34:58.005Z,98396.03
2022-11-26T18:37:29.985Z,98396.69
2022-11-26T18:40:00.243Z,98391.44
2022-11-26T18:42:37.031Z,98393.09
2022-11-26T18:45:08.229Z,98392.50
2022-11-26T18:47:39.758Z,98389.84
2022-11-26T18:50:08.645Z,98392.59
2022-11-26T18:52:39.172Z,98391.66
2022-11-26T18:55:10.262Z,98398.53
2022-11-26T18:57:40.325Z,98393.00
2022-11-26T19:00:09.428Z,98392.59
2022-11-26T19:02:40.297Z,98395.16
2022-11-26T19:05:08.852Z,98401.44
2022-11-26T19:07:42.655Z,98397.56
2022-11-26T19:10:12.781Z,98406.19
2022-11-26T19:12:42.623Z,98411.28
2022-11-26T19:15:11.999Z,98418.47
2022-11-26T19:17:40.538Z,98418.19
2022-11-26T19:20:10.318Z,98412.88
2022-11-26T19:22:41.359Z,98411.66
2022-11-26T19:25:09.906Z,98414.44
2022-11-26T19:27:40.151Z,98420.72
2022-11-26T19:30:09.402Z,98412.09
2022-11-26T19:32:40.686Z,98408.25
2022-11-26T19:35:11.644Z,98409.53
2022-11-26T19:37:43.047Z,98407.94
2022-11-26T19:40:11.823Z,98407.19
2022-11-26T19:42:41.228Z,98413.03
2022-11-26T19:45:13.024Z,98420.66
2022-11-26T19:47:42.832Z,98418.16
2022-11-26T19:50:12.379Z,98426.50
2022-11-26T19:52:49.137Z,98423.38
2022-11-26T19:55:18.061Z,98427.25
2022-11-26T19:57:46.373Z,98425.22
2022-11-26T20:00:15.333Z,98428.38
2022-11-26T20:02:45.121Z,98436.59
2022-11-26T20:05:14.391Z,98435.41
2022-11-26T20:07:45.701Z,98431.03
2022-11-26T20:10:15.821Z,98435.97
2022-11-26T20:12:45.413Z,98434.22
2022-11-26T20:15:14.175Z,98433.88
2022-11-26T20:17:42.725Z,98428.91
2022-11-26T20:20:12.087Z,98435.25
2022-11-26T20:22:40.477Z,98437.56
2022-11-26T20:25:12.853Z,98433.94
2022-11-26T20:27:44.111Z,98434.75
2022-11-26T20:30:12.890Z,98435.16
2022-11-26T20:32:42.757Z,98427.88
2022-11-26T20:35:12.941Z,98433.69
2022-11-26T20:37:50.069Z,98434.41
2022-11-26T20:40:21.029Z,98437.22
2022-11-26T20:42:59.223Z,98436.66
2022-11-26T20:45:32.422Z,98443.16
2022-11-26T20:48:08.416Z,98431.94
2022-11-26T20:50:40.427Z,98436.63
2022-11-26T20:53:14.240Z,98440.81
2022-11-26T20:55:57.054Z,98447.94
2022-11-26T20:58:25.853Z,98448.31
2022-11-26T21:00:57.774Z,98445.16
2022-11-26T21:03:26.820Z,98451.06
2022-11-26T21:05:55.438Z,98459.06
2022-11-26T21:08:23.820Z,98463.63
2022-11-26T21:10:52.182Z,98463.81
2022-11-26T21:13:33.427Z,98456.09
2022-11-26T21:16:23.723Z,98460.44
2022-11-26T21:18:58.581Z,98450.84
2022-11-26T21:21:33.247Z,98452.56
2022-11-26T21:24:06.442Z,98455.72
2022-11-26T21:26:37.475Z,98457.44
2022-11-26T21:29:13.140Z,98447.28
2022-11-26T21:31:43.805Z,98454.50
2022-11-26T21:34:18.266Z,98454.03
2022-11-26T21:36:49.077Z,98455.50
2022-11-26T21:39:17.466Z,98443.94
2022-11-26T21:41:51.384Z,98461.91
2022-11-26T21:44:27.480Z,98451.44
2022-11-26T21:47:00.067Z,98445.50
2022-11-26T21:49:33.869Z,98459.72
2022-11-26T21:52:02.322Z,98456.34
2022-11-26T21:54:36.762Z,98458.78
2022-11-26T21:57:05.314Z,98457.88
2022-11-26T21:59:41.877Z,98461.13
2022-11-26T22:02:13.687Z,98454.94
2022-11-26T22:04:45.114Z,98456.81
2022-11-26T22:07:18.662Z,98456.53
2022-11-26T22:09:52.513Z,98467.53
2022-11-26T22:12:21.014Z,98462.16
2022-11-26T22:14:49.322Z,98468.59
2022-11-26T22:17:17.785Z,98468.84
2022-11-26T22:19:46.303Z,98469.38
2022-11-26T22:22:14.646Z,98478.34
2022-11-26T22:24:42.940Z,98472.63
2022-11-26T22:27:11.988Z,98469.13
2022-11-26T22:29:40.473Z,98471.25
2022-11-26T22:32:09.199Z,98463.13
2022-11-26T22:34:37.672Z,98476.22
2022-11-26T22:37:07.552Z,98467.53
2022-11-26T22:39:35.926Z,98463.50
2022-11-26T22:42:04.437Z,98464.44
2022-11-26T22:44:34.327Z,98469.94
2022-11-26T22:47:03.248Z,98467.53
2022-11-26T22:49:31.625Z,98453.75
2022-11-26T22:52:00.316Z,98458.44
2022-11-26T22:54:28.740Z,98456.81
2022-11-26T22:56:57.150Z,98454.09
2022-11-26T22:59:27.789Z,98458.69
2022-11-26T23:01:57.160Z,98455.50
2022-11-26T23:04:25.452Z,98459.22
2022-11-26T23:06:53.857Z,98445.81
2022-11-26T23:09:22.262Z,98451.00
2022-11-26T23:11:51.701Z,98442.88
2022-11-26T23:14:19.997Z,98444.16
2022-11-26T23:16:48.503Z,98454.69
2022-11-26T23:19:17.055Z,98458.13
2022-11-26T23:21:47.088Z,98457.91
2022-11-26T23:24:15.810Z,98458.00
2022-11-26T23:26:44.310Z,98454.53
2022-11-26T23:29:12.740Z,98461.63
2022-11-26T23:31:43.100Z,98458.41
2022-11-26T23:34:12.469Z,98460.25
2022-11-26T23:36:40.982Z,98462.63
2022-11-26T23:39:10.749Z,98463.34
2022-11-26T23:41:39.100Z,98457.34
2022-11-26T23:44:07.505Z,98463.91
2022-11-26T23:46:35.909Z,98467.09
2022-11-26T23:49:04.367Z,98475.16
2022-11-26T23:51:32.882Z,98473.41
2022-11-26T23:54:01.206Z,98471.41
2022-11-26T23:56:31.283Z,98474.44
2022-11-26T23:59:02.403Z,98476.16
